sensor_id;sensor_type;location;lat;lon;timestamp;temperature;humidity
43561;DHT22;32305;46.410;17.394;2022-08-02T00:00:29;26.50;49.70
43561;DHT22;32305;46.410;17.394;2022-08-02T00:02:56;26.50;49.80
43561;DHT22;32305;46.410;17.394;2022-08-02T00:05:24;26.50;49.80
43561;DHT22;32305;46.410;17.394;2022-08-02T00:07:51;26.50;49.80
43561;DHT22;32305;46.410;17.394;2022-08-02T00:10:18;26.50;49.80
43561;DHT22;32305;46.410;17.394;2022-08-02T00:12:45;26.50;49.80
43561;DHT22;32305;46.410;17.394;2022-08-02T00:15:12;26.50;49.90
43561;DHT22;32305;46.410;17.394;2022-08-02T00:17:42;26.50;49.90
43561;DHT22;32305;46.410;17.394;2022-08-02T00:20:45;26.50;49.90
43561;DHT22;32305;46.410;17.394;2022-08-02T00:23:12;26.50;49.90
43561;DHT22;32305;46.410;17.394;2022-08-02T00:25:39;26.40;49.80
43561;DHT22;32305;46.410;17.394;2022-08-02T00:28:22;26.40;49.80
43561;DHT22;32305;46.410;17.394;2022-08-02T00:30:54;26.40;49.90
43561;DHT22;32305;46.410;17.394;2022-08-02T00:33:21;26.40;49.90
43561;DHT22;32305;46.410;17.394;2022-08-02T00:36:09;26.40;49.90
43561;DHT22;32305;46.410;17.394;2022-08-02T00:38:36;26.50;50.00
43561;DHT22;32305;46.410;17.394;2022-08-02T00:41:03;26.40;50.00
43561;DHT22;32305;46.410;17.394;2022-08-02T00:43:30;26.40;50.00
43561;DHT22;32305;46.410;17.394;2022-08-02T00:45:57;26.40;50.00
43561;DHT22;32305;46.410;17.394;2022-08-02T00:48:29;26.40;50.00
43561;DHT22;32305;46.410;17.394;2022-08-02T00:50:58;26.40;50.10
43561;DHT22;32305;46.410;17.394;2022-08-02T00:53:25;26.40;50.00
43561;DHT22;32305;46.410;17.394;2022-08-02T00:55:52;26.40;50.10
43561;DHT22;32305;46.410;17.394;2022-08-02T00:58:19;26.40;50.10
43561;DHT22;32305;46.410;17.394;2022-08-02T01:00:47;26.40;50.10
43561;DHT22;32305;46.410;17.394;2022-08-02T01:03:14;26.30;50.10
43561;DHT22;32305;46.410;17.394;2022-08-02T01:05:41;26.40;50.70
43561;DHT22;32305;46.410;17.394;2022-08-02T01:08:29;26.30;50.10
43561;DHT22;32305;46.410;17.394;2022-08-02T01:10:57;26.30;50.10
43561;DHT22;32305;46.410;17.394;2022-08-02T01:13:25;26.30;50.10
43561;DHT22;32305;46.410;17.394;2022-08-02T01:16:12;26.30;50.20
43561;DHT22;32305;46.410;17.394;2022-08-02T01:18:45;26.40;50.30
43561;DHT22;32305;46.410;17.394;2022-08-02T01:21:27;26.30;50.20
43561;DHT22;32305;46.410;17.394;2022-08-02T01:24:16;26.30;50.20
43561;DHT22;32305;46.410;17.394;2022-08-02T01:27:18;26.30;50.20
43561;DHT22;32305;46.410;17.394;2022-08-02T01:29:52;26.30;50.20
43561;DHT22;32305;46.410;17.394;2022-08-02T01:32:30;26.30;50.30
43561;DHT22;32305;46.410;17.394;2022-08-02T01:35:09;26.30;50.30
43561;DHT22;32305;46.410;17.394;2022-08-02T01:37:58;26.30;50.30
43561;DHT22;32305;46.410;17.394;2022-08-02T01:40:30;26.30;50.30
43561;DHT22;32305;46.410;17.394;2022-08-02T01:43:00;26.30;50.30
43561;DHT22;32305;46.410;17.394;2022-08-02T01:45:32;26.20;50.20
43561;DHT22;32305;46.410;17.394;2022-08-02T01:48:00;26.30;50.30
43561;DHT22;32305;46.410;17.394;2022-08-02T01:50:33;26.30;50.30
43561;DHT22;32305;46.410;17.394;2022-08-02T01:53:04;26.30;50.30
43561;DHT22;32305;46.410;17.394;2022-08-02T01:55:39;26.30;50.40
43561;DHT22;32305;46.410;17.394;2022-08-02T01:58:30;26.30;50.30
43561;DHT22;32305;46.410;17.394;2022-08-02T02:00:59;26.30;50.30
43561;DHT22;32305;46.410;17.394;2022-08-02T02:03:28;26.30;50.30
43561;DHT22;32305;46.410;17.394;2022-08-02T02:06:00;26.30;50.40
43561;DHT22;32305;46.410;17.394;2022-08-02T02:08:40;26.30;50.40
43561;DHT22;32305;46.410;17.394;2022-08-02T02:11:09;26.30;50.40
43561;DHT22;32305;46.410;17.394;2022-08-02T02:13:57;26.30;50.40
43561;DHT22;32305;46.410;17.394;2022-08-02T02:16:27;26.20;50.30
43561;DHT22;32305;46.410;17.394;2022-08-02T02:18:54;26.20;50.30
43561;DHT22;32305;46.410;17.394;2022-08-02T02:21:21;26.20;50.60
43561;DHT22;32305;46.410;17.394;2022-08-02T02:23:49;26.20;50.40
43561;DHT22;32305;46.410;17.394;2022-08-02T02:26:17;26.20;50.40
43561;DHT22;32305;46.410;17.394;2022-08-02T02:28:57;26.20;50.40
43561;DHT22;32305;46.410;17.394;2022-08-02T02:31:25;26.20;50.40
43561;DHT22;32305;46.410;17.394;2022-08-02T02:34:00;26.20;50.40
43561;DHT22;32305;46.410;17.394;2022-08-02T02:36:28;26.20;50.40
43561;DHT22;32305;46.410;17.394;2022-08-02T02:39:00;26.20;50.40
43561;DHT22;32305;46.410;17.394;2022-08-02T02:41:29;26.20;50.50
43561;DHT22;32305;46.410;17.394;2022-08-02T02:44:00;26.20;50.40
43561;DHT22;32305;46.410;17.394;2022-08-02T02:46:29;26.20;50.40
43561;DHT22;32305;46.410;17.394;2022-08-02T02:48:57;26.10;50.40
43561;DHT22;32305;46.410;17.394;2022-08-02T02:51:24;26.20;50.60
43561;DHT22;32305;46.410;17.394;2022-08-02T02:53:52;26.20;50.60
43561;DHT22;32305;46.410;17.394;2022-08-02T02:56:41;26.10;50.50
43561;DHT22;32305;46.410;17.394;2022-08-02T02:59:10;26.20;50.70
43561;DHT22;32305;46.410;17.394;2022-08-02T03:01:39;26.20;50.70
43561;DHT22;32305;46.410;17.394;2022-08-02T03:04:26;26.10;50.60
43561;DHT22;32305;46.410;17.394;2022-08-02T03:07:15;26.10;50.60
43561;DHT22;32305;46.410;17.394;2022-08-02T03:09:42;26.10;50.70
43561;DHT22;32305;46.410;17.394;2022-08-02T03:12:13;26.20;50.70
43561;DHT22;32305;46.410;17.394;2022-08-02T03:14:45;26.10;50.70
43561;DHT22;32305;46.410;17.394;2022-08-02T03:17:15;26.20;50.80
43561;DHT22;32305;46.410;17.394;2022-08-02T03:19:43;26.20;50.80
43561;DHT22;32305;46.410;17.394;2022-08-02T03:22:10;26.20;50.90
43561;DHT22;32305;46.410;17.394;2022-08-02T03:24:38;26.10;50.80
43561;DHT22;32305;46.410;17.394;2022-08-02T03:27:05;26.20;50.90
43561;DHT22;32305;46.410;17.394;2022-08-02T03:29:32;26.10;50.90
43561;DHT22;32305;46.410;17.394;2022-08-02T03:32:01;26.20;51.00
43561;DHT22;32305;46.410;17.394;2022-08-02T03:34:28;26.20;50.90
43561;DHT22;32305;46.410;17.394;2022-08-02T03:36:56;26.20;50.90
43561;DHT22;32305;46.410;17.394;2022-08-02T03:39:24;26.20;50.90
43561;DHT22;32305;46.410;17.394;2022-08-02T03:41:53;26.10;50.80
43561;DHT22;32305;46.410;17.394;2022-08-02T03:44:22;26.20;50.90
43561;DHT22;32305;46.410;17.394;2022-08-02T03:46:50;26.20;50.90
43561;DHT22;32305;46.410;17.394;2022-08-02T03:49:19;26.20;50.90
43561;DHT22;32305;46.410;17.394;2022-08-02T03:51:47;26.20;50.90
43561;DHT22;32305;46.410;17.394;2022-08-02T03:54:16;26.20;50.90
43561;DHT22;32305;46.410;17.394;2022-08-02T03:56:44;26.20;51.50
43561;DHT22;32305;46.410;17.394;2022-08-02T03:59:13;26.20;50.90
43561;DHT22;32305;46.410;17.394;2022-08-02T04:01:40;26.20;50.90
43561;DHT22;32305;46.410;17.394;2022-08-02T04:04:08;26.20;50.90
43561;DHT22;32305;46.410;17.394;2022-08-02T04:06:35;26.30;50.90
43561;DHT22;32305;46.410;17.394;2022-08-02T04:09:08;26.30;50.90
43561;DHT22;32305;46.410;17.394;2022-08-02T04:11:35;26.30;50.90
43561;DHT22;32305;46.410;17.394;2022-08-02T04:14:07;26.30;50.80
43561;DHT22;32305;46.410;17.394;2022-08-02T04:16:45;26.30;50.80
43561;DHT22;32305;46.410;17.394;2022-08-02T04:19:18;26.40;50.80
43561;DHT22;32305;46.410;17.394;2022-08-02T04:21:48;26.40;50.80
43561;DHT22;32305;46.410;17.394;2022-08-02T04:24:25;26.40;50.70
43561;DHT22;32305;46.410;17.394;2022-08-02T04:26:55;26.40;50.60
43561;DHT22;32305;46.410;17.394;2022-08-02T04:29:27;26.40;50.60
43561;DHT22;32305;46.410;17.394;2022-08-02T04:31:55;26.50;50.70
43561;DHT22;32305;46.410;17.394;2022-08-02T04:34:23;26.50;50.70
43561;DHT22;32305;46.410;17.394;2022-08-02T04:36:50;26.50;50.60
43561;DHT22;32305;46.410;17.394;2022-08-02T04:39:18;26.50;50.50
43561;DHT22;32305;46.410;17.394;2022-08-02T04:41:45;26.50;50.40
43561;DHT22;32305;46.410;17.394;2022-08-02T04:44:13;26.50;50.40
43561;DHT22;32305;46.410;17.394;2022-08-02T04:46:42;26.60;50.30
43561;DHT22;32305;46.410;17.394;2022-08-02T04:49:10;26.60;50.30
43561;DHT22;32305;46.410;17.394;2022-08-02T04:51:39;26.60;50.20
43561;DHT22;32305;46.410;17.394;2022-08-02T04:54:08;26.70;50.10
43561;DHT22;32305;46.410;17.394;2022-08-02T04:56:37;26.70;50.10
43561;DHT22;32305;46.410;17.394;2022-08-02T04:59:05;26.80;50.00
43561;DHT22;32305;46.410;17.394;2022-08-02T05:01:32;26.80;49.90
43561;DHT22;32305;46.410;17.394;2022-08-02T05:04:01;26.90;49.80
43561;DHT22;32305;46.410;17.394;2022-08-02T05:06:29;26.90;49.70
43561;DHT22;32305;46.410;17.394;2022-08-02T05:08:56;26.90;49.60
43561;DHT22;32305;46.410;17.394;2022-08-02T05:11:24;26.80;49.80
43561;DHT22;32305;46.410;17.394;2022-08-02T05:14:04;26.70;50.00
43561;DHT22;32305;46.410;17.394;2022-08-02T05:16:31;26.50;50.30
43561;DHT22;32305;46.410;17.394;2022-08-02T05:18:59;26.40;50.60
43561;DHT22;32305;46.410;17.394;2022-08-02T05:21:28;26.10;51.10
43561;DHT22;32305;46.410;17.394;2022-08-02T05:23:57;25.90;51.10
43561;DHT22;32305;46.410;17.394;2022-08-02T05:26:24;25.60;50.70
43561;DHT22;32305;46.410;17.394;2022-08-02T05:28:51;25.30;50.20
43561;DHT22;32305;46.410;17.394;2022-08-02T05:31:18;24.90;49.90
43561;DHT22;32305;46.410;17.394;2022-08-02T05:33:46;24.60;50.00
43561;DHT22;32305;46.410;17.394;2022-08-02T05:36:13;24.20;49.70
43561;DHT22;32305;46.410;17.394;2022-08-02T05:38:41;23.80;49.50
43561;DHT22;32305;46.410;17.394;2022-08-02T05:41:16;23.50;49.50
43561;DHT22;32305;46.410;17.394;2022-08-02T05:43:45;23.20;50.10
43561;DHT22;32305;46.410;17.394;2022-08-02T05:46:13;22.80;50.10
43561;DHT22;32305;46.410;17.394;2022-08-02T05:48:40;22.60;50.40
43561;DHT22;32305;46.410;17.394;2022-08-02T05:51:12;22.30;51.30
43561;DHT22;32305;46.410;17.394;2022-08-02T05:53:50;22.10;51.00
43561;DHT22;32305;46.410;17.394;2022-08-02T05:56:28;21.90;51.70
43561;DHT22;32305;46.410;17.394;2022-08-02T05:59:11;21.70;52.20
43561;DHT22;32305;46.410;17.394;2022-08-02T06:01:41;21.60;52.80
43561;DHT22;32305;46.410;17.394;2022-08-02T06:04:19;21.50;53.40
43561;DHT22;32305;46.410;17.394;2022-08-02T06:06:54;21.40;54.30
43561;DHT22;32305;46.410;17.394;2022-08-02T06:09:24;21.30;54.20
43561;DHT22;32305;46.410;17.394;2022-08-02T06:11:53;21.30;55.30
43561;DHT22;32305;46.410;17.394;2022-08-02T06:14:39;21.30;55.50
43561;DHT22;32305;46.410;17.394;2022-08-02T06:17:07;21.30;56.20
43561;DHT22;32305;46.410;17.394;2022-08-02T06:19:38;21.30;56.70
43561;DHT22;32305;46.410;17.394;2022-08-02T06:22:18;21.30;56.70
43561;DHT22;32305;46.410;17.394;2022-08-02T06:25:04;21.30;57.00
43561;DHT22;32305;46.410;17.394;2022-08-02T06:27:53;21.40;56.80
43561;DHT22;32305;46.410;17.394;2022-08-02T06:30:21;21.50;56.80
43561;DHT22;32305;46.410;17.394;2022-08-02T06:32:50;21.50;57.00
43561;DHT22;32305;46.410;17.394;2022-08-02T06:35:18;21.50;57.00
43561;DHT22;32305;46.410;17.394;2022-08-02T06:37:50;21.50;57.20
43561;DHT22;32305;46.410;17.394;2022-08-02T06:40:36;21.50;57.00
43561;DHT22;32305;46.410;17.394;2022-08-02T06:43:11;21.60;57.30
43561;DHT22;32305;46.410;17.394;2022-08-02T06:45:39;21.60;57.20
43561;DHT22;32305;46.410;17.394;2022-08-02T06:48:06;21.60;57.10
43561;DHT22;32305;46.410;17.394;2022-08-02T06:50:35;21.60;57.30
43561;DHT22;32305;46.410;17.394;2022-08-02T06:53:08;21.50;57.50
43561;DHT22;32305;46.410;17.394;2022-08-02T06:55:35;21.50;57.80
43561;DHT22;32305;46.410;17.394;2022-08-02T06:58:10;21.50;58.00
43561;DHT22;32305;46.410;17.394;2022-08-02T07:00:38;21.50;57.90
43561;DHT22;32305;46.410;17.394;2022-08-02T07:03:05;21.50;58.10
43561;DHT22;32305;46.410;17.394;2022-08-02T07:05:33;21.50;58.20
43561;DHT22;32305;46.410;17.394;2022-08-02T07:08:01;21.50;58.50
43561;DHT22;32305;46.410;17.394;2022-08-02T07:10:29;21.60;58.40
43561;DHT22;32305;46.410;17.394;2022-08-02T07:12:56;21.60;58.30
43561;DHT22;32305;46.410;17.394;2022-08-02T07:15:25;21.50;58.30
43561;DHT22;32305;46.410;17.394;2022-08-02T07:17:53;21.50;58.30
43561;DHT22;32305;46.410;17.394;2022-08-02T07:20:21;21.50;58.20
43561;DHT22;32305;46.410;17.394;2022-08-02T07:22:48;21.50;58.20
43561;DHT22;32305;46.410;17.394;2022-08-02T07:25:15;21.50;58.40
43561;DHT22;32305;46.410;17.394;2022-08-02T07:27:42;21.50;58.30
43561;DHT22;32305;46.410;17.394;2022-08-02T07:30:10;21.50;58.20
43561;DHT22;32305;46.410;17.394;2022-08-02T07:32:38;21.50;58.20
43561;DHT22;32305;46.410;17.394;2022-08-02T07:35:06;21.50;58.30
43561;DHT22;32305;46.410;17.394;2022-08-02T07:37:35;21.50;58.20
43561;DHT22;32305;46.410;17.394;2022-08-02T07:40:25;21.50;58.10
43561;DHT22;32305;46.410;17.394;2022-08-02T07:42:54;21.50;58.10
43561;DHT22;32305;46.410;17.394;2022-08-02T07:45:30;21.50;58.30
43561;DHT22;32305;46.410;17.394;2022-08-02T07:47:57;21.50;58.50
43561;DHT22;32305;46.410;17.394;2022-08-02T07:50:25;21.50;58.20
43561;DHT22;32305;46.410;17.394;2022-08-02T07:52:54;21.40;58.40
43561;DHT22;32305;46.410;17.394;2022-08-02T07:55:24;21.40;58.60
43561;DHT22;32305;46.410;17.394;2022-08-02T07:58:07;21.30;58.40
43561;DHT22;32305;46.410;17.394;2022-08-02T08:00:38;21.30;58.70
43561;DHT22;32305;46.410;17.394;2022-08-02T08:03:06;21.30;59.30
43561;DHT22;32305;46.410;17.394;2022-08-02T08:05:33;21.20;59.40
43561;DHT22;32305;46.410;17.394;2022-08-02T08:08:01;21.20;59.70
43561;DHT22;32305;46.410;17.394;2022-08-02T08:10:28;21.20;59.90
43561;DHT22;32305;46.410;17.394;2022-08-02T08:12:55;21.30;59.70
43561;DHT22;32305;46.410;17.394;2022-08-02T08:15:22;21.30;59.70
43561;DHT22;32305;46.410;17.394;2022-08-02T08:17:49;21.30;59.70
43561;DHT22;32305;46.410;17.394;2022-08-02T08:20:17;21.40;59.70
43561;DHT22;32305;46.410;17.394;2022-08-02T08:22:44;21.40;59.60
43561;DHT22;32305;46.410;17.394;2022-08-02T08:25:12;21.40;59.50
43561;DHT22;32305;46.410;17.394;2022-08-02T08:27:50;21.40;59.80
43561;DHT22;32305;46.410;17.394;2022-08-02T08:30:19;21.40;59.50
43561;DHT22;32305;46.410;17.394;2022-08-02T08:32:48;21.40;59.60
43561;DHT22;32305;46.410;17.394;2022-08-02T08:35:16;21.50;59.50
43561;DHT22;32305;46.410;17.394;2022-08-02T08:37:43;21.60;59.40
43561;DHT22;32305;46.410;17.394;2022-08-02T08:40:11;21.60;59.30
43561;DHT22;32305;46.410;17.394;2022-08-02T08:42:45;21.70;59.20
43561;DHT22;32305;46.410;17.394;2022-08-02T08:45:12;21.60;59.00
43561;DHT22;32305;46.410;17.394;2022-08-02T08:47:41;21.70;59.30
43561;DHT22;32305;46.410;17.394;2022-08-02T08:50:11;21.70;59.20
43561;DHT22;32305;46.410;17.394;2022-08-02T08:52:48;21.80;59.10
43561;DHT22;32305;46.410;17.394;2022-08-02T08:55:23;21.80;59.30
43561;DHT22;32305;46.410;17.394;2022-08-02T08:57:54;21.80;59.10
43561;DHT22;32305;46.410;17.394;2022-08-02T09:00:21;21.80;59.30
43561;DHT22;32305;46.410;17.394;2022-08-02T09:02:49;21.80;59.20
43561;DHT22;32305;46.410;17.394;2022-08-02T09:05:16;21.80;59.00
43561;DHT22;32305;46.410;17.394;2022-08-02T09:07:49;21.80;59.30
43561;DHT22;32305;46.410;17.394;2022-08-02T09:10:40;21.90;59.20
43561;DHT22;32305;46.410;17.394;2022-08-02T09:13:17;21.90;59.00
43561;DHT22;32305;46.410;17.394;2022-08-02T09:16:07;21.90;59.10
43561;DHT22;32305;46.410;17.394;2022-08-02T09:18:40;21.90;59.00
43561;DHT22;32305;46.410;17.394;2022-08-02T09:21:11;21.90;58.80
43561;DHT22;32305;46.410;17.394;2022-08-02T09:23:47;22.00;58.80
43561;DHT22;32305;46.410;17.394;2022-08-02T09:26:19;22.00;58.50
43561;DHT22;32305;46.410;17.394;2022-08-02T09:28:48;22.00;58.20
43561;DHT22;32305;46.410;17.394;2022-08-02T09:31:18;22.00;58.30
43561;DHT22;32305;46.410;17.394;2022-08-02T09:33:57;22.00;58.60
43561;DHT22;32305;46.410;17.394;2022-08-02T09:36:39;22.00;58.20
43561;DHT22;32305;46.410;17.394;2022-08-02T09:39:09;22.00;58.10
43561;DHT22;32305;46.410;17.394;2022-08-02T09:41:44;22.00;58.00
43561;DHT22;32305;46.410;17.394;2022-08-02T09:44:13;22.00;58.00
43561;DHT22;32305;46.410;17.394;2022-08-02T09:46:44;22.00;58.00
43561;DHT22;32305;46.410;17.394;2022-08-02T09:49:17;22.00;57.80
43561;DHT22;32305;46.410;17.394;2022-08-02T09:51:49;22.00;57.70
43561;DHT22;32305;46.410;17.394;2022-08-02T09:54:24;22.10;57.70
43561;DHT22;32305;46.410;17.394;2022-08-02T09:56:55;22.10;57.60
43561;DHT22;32305;46.410;17.394;2022-08-02T09:59:24;22.10;57.70
43561;DHT22;32305;46.410;17.394;2022-08-02T10:01:52;22.00;57.80
43561;DHT22;32305;46.410;17.394;2022-08-02T10:04:30;22.10;57.70
43561;DHT22;32305;46.410;17.394;2022-08-02T10:07:19;22.10;57.80
43561;DHT22;32305;46.410;17.394;2022-08-02T10:09:49;22.10;57.60
43561;DHT22;32305;46.410;17.394;2022-08-02T10:12:17;22.10;57.50
43561;DHT22;32305;46.410;17.394;2022-08-02T10:14:46;22.00;57.30
43561;DHT22;32305;46.410;17.394;2022-08-02T10:17:17;22.10;57.20
43561;DHT22;32305;46.410;17.394;2022-08-02T10:19:44;22.10;56.90
43561;DHT22;32305;46.410;17.394;2022-08-02T10:22:31;22.00;56.90
43561;DHT22;32305;46.410;17.394;2022-08-02T10:25:02;22.00;57.00
43561;DHT22;32305;46.410;17.394;2022-08-02T10:27:31;22.00;56.90
43561;DHT22;32305;46.410;17.394;2022-08-02T10:30:18;22.00;56.80
43561;DHT22;32305;46.410;17.394;2022-08-02T10:32:46;22.00;57.00
43561;DHT22;32305;46.410;17.394;2022-08-02T10:35:17;22.00;56.70
43561;DHT22;32305;46.410;17.394;2022-08-02T10:37:56;21.90;56.60
43561;DHT22;32305;46.410;17.394;2022-08-02T10:40:24;21.90;56.60
43561;DHT22;32305;46.410;17.394;2022-08-02T10:42:56;21.90;56.70
43561;DHT22;32305;46.410;17.394;2022-08-02T10:45:28;21.90;56.70
43561;DHT22;32305;46.410;17.394;2022-08-02T10:47:58;21.90;56.50
43561;DHT22;32305;46.410;17.394;2022-08-02T10:50:51;21.90;56.50
43561;DHT22;32305;46.410;17.394;2022-08-02T10:53:29;21.90;56.60
43561;DHT22;32305;46.410;17.394;2022-08-02T10:55:59;21.80;56.50
43561;DHT22;32305;46.410;17.394;2022-08-02T10:58:29;21.80;56.70
43561;DHT22;32305;46.410;17.394;2022-08-02T11:01:05;21.80;56.80
43561;DHT22;32305;46.410;17.394;2022-08-02T11:04:04;21.70;56.60
43561;DHT22;32305;46.410;17.394;2022-08-02T11:07:10;21.70;56.80
43561;DHT22;32305;46.410;17.394;2022-08-02T11:09:38;21.70;56.90
43561;DHT22;32305;46.410;17.394;2022-08-02T11:12:10;21.60;56.80
43561;DHT22;32305;46.410;17.394;2022-08-02T11:14:40;21.60;57.10
43561;DHT22;32305;46.410;17.394;2022-08-02T11:17:15;21.60;57.00
43561;DHT22;32305;46.410;17.394;2022-08-02T11:20:14;21.70;57.10
43561;DHT22;32305;46.410;17.394;2022-08-02T11:22:43;21.70;57.00
43561;DHT22;32305;46.410;17.394;2022-08-02T11:25:31;21.70;57.20
43561;DHT22;32305;46.410;17.394;2022-08-02T11:28:18;21.70;57.00
43561;DHT22;32305;46.410;17.394;2022-08-02T11:30:56;21.60;57.30
43561;DHT22;32305;46.410;17.394;2022-08-02T11:33:30;21.70;57.30
43561;DHT22;32305;46.410;17.394;2022-08-02T11:36:03;21.60;57.10
43561;DHT22;32305;46.410;17.394;2022-08-02T11:38:31;21.60;57.00
43561;DHT22;32305;46.410;17.394;2022-08-02T11:40:59;21.60;57.00
43561;DHT22;32305;46.410;17.394;2022-08-02T11:43:36;21.60;56.90
43561;DHT22;32305;46.410;17.394;2022-08-02T11:46:04;21.60;56.90
43561;DHT22;32305;46.410;17.394;2022-08-02T11:48:39;21.60;56.80
43561;DHT22;32305;46.410;17.394;2022-08-02T11:51:12;21.50;57.10
43561;DHT22;32305;46.410;17.394;2022-08-02T11:53:45;21.50;57.20
43561;DHT22;32305;46.410;17.394;2022-08-02T11:56:14;21.50;57.30
43561;DHT22;32305;46.410;17.394;2022-08-02T11:59:05;21.50;57.60
43561;DHT22;32305;46.410;17.394;2022-08-02T12:01:37;21.50;57.50
43561;DHT22;32305;46.410;17.394;2022-08-02T12:04:15;21.40;57.70
43561;DHT22;32305;46.410;17.394;2022-08-02T12:06:43;21.50;58.00
43561;DHT22;32305;46.410;17.394;2022-08-02T12:09:13;21.50;58.00
43561;DHT22;32305;46.410;17.394;2022-08-02T12:11:48;21.50;58.30
43561;DHT22;32305;46.410;17.394;2022-08-02T12:14:17;21.50;58.00
43561;DHT22;32305;46.410;17.394;2022-08-02T12:16:44;21.50;58.10
43561;DHT22;32305;46.410;17.394;2022-08-02T12:19:32;21.50;58.00
43561;DHT22;32305;46.410;17.394;2022-08-02T12:22:19;21.50;58.10
43561;DHT22;32305;46.410;17.394;2022-08-02T12:24:55;21.50;58.40
43561;DHT22;32305;46.410;17.394;2022-08-02T12:27:31;21.40;58.60
43561;DHT22;32305;46.410;17.394;2022-08-02T12:30:08;21.40;58.90
43561;DHT22;32305;46.410;17.394;2022-08-02T12:32:38;21.40;58.50
43561;DHT22;32305;46.410;17.394;2022-08-02T12:35:10;21.40;58.70
43561;DHT22;32305;46.410;17.394;2022-08-02T12:37:42;21.40;58.80
43561;DHT22;32305;46.410;17.394;2022-08-02T12:40:30;21.40;58.80
43561;DHT22;32305;46.410;17.394;2022-08-02T12:43:00;21.40;58.00
43561;DHT22;32305;46.410;17.394;2022-08-02T12:45:31;21.40;58.30
43561;DHT22;32305;46.410;17.394;2022-08-02T12:48:07;21.40;58.20
43561;DHT22;32305;46.410;17.394;2022-08-02T12:50:35;21.40;58.50
43561;DHT22;32305;46.410;17.394;2022-08-02T12:53:14;21.30;58.40
43561;DHT22;32305;46.410;17.394;2022-08-02T12:55:55;21.30;58.60
43561;DHT22;32305;46.410;17.394;2022-08-02T12:58:30;21.30;59.10
43561;DHT22;32305;46.410;17.394;2022-08-02T13:00:59;21.30;59.60
43561;DHT22;32305;46.410;17.394;2022-08-02T13:03:28;21.30;59.30
43561;DHT22;32305;46.410;17.394;2022-08-02T13:06:16;21.30;59.50
43561;DHT22;32305;46.410;17.394;2022-08-02T13:09:14;21.30;59.90
43561;DHT22;32305;46.410;17.394;2022-08-02T13:11:42;21.30;60.30
43561;DHT22;32305;46.410;17.394;2022-08-02T13:14:12;21.30;60.10
43561;DHT22;32305;46.410;17.394;2022-08-02T13:16:41;21.30;60.20
43561;DHT22;32305;46.410;17.394;2022-08-02T13:19:09;21.40;60.10
43561;DHT22;32305;46.410;17.394;2022-08-02T13:21:37;21.40;60.20
43561;DHT22;32305;46.410;17.394;2022-08-02T13:24:25;21.40;60.40
43561;DHT22;32305;46.410;17.394;2022-08-02T13:27:14;21.50;60.50
43561;DHT22;32305;46.410;17.394;2022-08-02T13:29:41;21.50;60.60
43561;DHT22;32305;46.410;17.394;2022-08-02T13:32:09;21.50;60.70
43561;DHT22;32305;46.410;17.394;2022-08-02T13:34:37;21.60;60.80
43561;DHT22;32305;46.410;17.394;2022-08-02T13:37:06;21.60;60.80
43561;DHT22;32305;46.410;17.394;2022-08-02T13:39:33;21.60;60.70
43561;DHT22;32305;46.410;17.394;2022-08-02T13:42:01;21.70;63.50
43561;DHT22;32305;46.410;17.394;2022-08-02T13:44:29;21.80;64.50
43561;DHT22;32305;46.410;17.394;2022-08-02T13:46:57;22.00;64.00
43561;DHT22;32305;46.410;17.394;2022-08-02T13:49:24;22.30;63.70
43561;DHT22;32305;46.410;17.394;2022-08-02T13:52:11;22.40;63.40
43561;DHT22;32305;46.410;17.394;2022-08-02T13:54:39;22.50;63.00
43561;DHT22;32305;46.410;17.394;2022-08-02T13:57:07;22.70;62.80
43561;DHT22;32305;46.410;17.394;2022-08-02T13:59:34;22.80;62.80
43561;DHT22;32305;46.410;17.394;2022-08-02T14:02:21;22.90;62.30
43561;DHT22;32305;46.410;17.394;2022-08-02T14:04:49;22.90;62.00
43561;DHT22;32305;46.410;17.394;2022-08-02T14:07:16;23.00;61.90
43561;DHT22;32305;46.410;17.394;2022-08-02T14:09:43;23.00;58.70
43561;DHT22;32305;46.410;17.394;2022-08-02T14:12:10;22.90;58.60
43561;DHT22;32305;46.410;17.394;2022-08-02T14:14:39;22.80;58.50
43561;DHT22;32305;46.410;17.394;2022-08-02T14:17:06;22.60;58.70
43561;DHT22;32305;46.410;17.394;2022-08-02T14:19:33;22.60;58.40
43561;DHT22;32305;46.410;17.394;2022-08-02T14:22:01;22.40;58.60
43561;DHT22;32305;46.410;17.394;2022-08-02T14:24:38;22.30;58.40
43561;DHT22;32305;46.410;17.394;2022-08-02T14:27:08;22.20;58.60
43561;DHT22;32305;46.410;17.394;2022-08-02T14:29:35;22.10;58.90
43561;DHT22;32305;46.410;17.394;2022-08-02T14:32:02;22.00;58.60
43561;DHT22;32305;46.410;17.394;2022-08-02T14:34:30;22.00;58.60
43561;DHT22;32305;46.410;17.394;2022-08-02T14:36:57;21.90;59.20
43561;DHT22;32305;46.410;17.394;2022-08-02T14:39:24;21.80;59.60
43561;DHT22;32305;46.410;17.394;2022-08-02T14:41:51;21.80;59.50
43561;DHT22;32305;46.410;17.394;2022-08-02T14:44:27;21.80;59.60
43561;DHT22;32305;46.410;17.394;2022-08-02T14:46:55;21.80;59.40
43561;DHT22;32305;46.410;17.394;2022-08-02T14:49:22;21.80;59.20
43561;DHT22;32305;46.410;17.394;2022-08-02T14:51:53;21.80;59.10
43561;DHT22;32305;46.410;17.394;2022-08-02T14:54:21;21.80;60.90
43561;DHT22;32305;46.410;17.394;2022-08-02T14:57:02;21.80;62.40
43561;DHT22;32305;46.410;17.394;2022-08-02T14:59:29;21.90;63.60
43561;DHT22;32305;46.410;17.394;2022-08-02T15:01:58;22.00;64.40
43561;DHT22;32305;46.410;17.394;2022-08-02T15:04:25;22.10;65.20
43561;DHT22;32305;46.410;17.394;2022-08-02T15:06:53;22.30;65.80
43561;DHT22;32305;46.410;17.394;2022-08-02T15:09:21;22.40;66.20
43561;DHT22;32305;46.410;17.394;2022-08-02T15:11:48;22.60;66.70
43561;DHT22;32305;46.410;17.394;2022-08-02T15:14:16;22.80;66.90
43561;DHT22;32305;46.410;17.394;2022-08-02T15:16:52;22.90;67.30
43561;DHT22;32305;46.410;17.394;2022-08-02T15:19:23;23.10;67.60
43561;DHT22;32305;46.410;17.394;2022-08-02T15:22:10;23.20;67.60
43561;DHT22;32305;46.410;17.394;2022-08-02T15:24:43;23.40;67.80
43561;DHT22;32305;46.410;17.394;2022-08-02T15:27:10;23.50;67.90
43561;DHT22;32305;46.410;17.394;2022-08-02T15:29:41;23.60;68.00
43561;DHT22;32305;46.410;17.394;2022-08-02T15:32:09;23.80;68.50
43561;DHT22;32305;46.410;17.394;2022-08-02T15:34:38;23.90;68.40
43561;DHT22;32305;46.410;17.394;2022-08-02T15:37:05;24.00;68.70
43561;DHT22;32305;46.410;17.394;2022-08-02T15:39:32;24.10;68.70
43561;DHT22;32305;46.410;17.394;2022-08-02T15:41:59;24.20;68.70
43561;DHT22;32305;46.410;17.394;2022-08-02T15:44:27;24.30;68.60